sensor_id;sensor_type;location;lat;lon;timestamp;temperature;humidity
10129;DHT22;5104;50.720;7.044;2022-08-14T00:00:08;20.00;1.00
10129;DHT22;5104;50.720;7.044;2022-08-14T00:02:37;20.00;1.00
10129;DHT22;5104;50.720;7.044;2022-08-14T00:05:05;20.00;1.00
10129;DHT22;5104;50.720;7.044;2022-08-14T00:07:31;19.90;1.00
10129;DHT22;5104;50.720;7.044;2022-08-14T00:10:00;19.90;1.00
10129;DHT22;5104;50.720;7.044;2022-08-14T00:12:27;19.80;1.00
10129;DHT22;5104;50.720;7.044;2022-08-14T00:14:54;19.80;1.00
10129;DHT22;5104;50.720;7.044;2022-08-14T00:17:21;19.80;1.00
10129;DHT22;5104;50.720;7.044;2022-08-14T00:19:50;19.80;1.00
10129;DHT22;5104;50.720;7.044;2022-08-14T00:22:17;19.80;1.00
10129;DHT22;5104;50.720;7.044;2022-08-14T00:24:44;19.80;1.00
10129;DHT22;5104;50.720;7.044;2022-08-14T00:27:11;19.70;1.00
10129;DHT22;5104;50.720;7.044;2022-08-14T00:29:38;19.70;1.00
10129;DHT22;5104;50.720;7.044;2022-08-14T00:32:05;19.70;1.00
10129;DHT22;5104;50.720;7.044;2022-08-14T00:34:32;19.60;1.00
10129;DHT22;5104;50.720;7.044;2022-08-14T00:37:01;19.60;1.00
10129;DHT22;5104;50.720;7.044;2022-08-14T00:39:30;19.60;1.00
10129;DHT22;5104;50.720;7.044;2022-08-14T00:41:57;19.60;1.00
10129;DHT22;5104;50.720;7.044;2022-08-14T00:44:24;19.60;1.00
10129;DHT22;5104;50.720;7.044;2022-08-14T00:46:51;19.50;1.00
10129;DHT22;5104;50.720;7.044;2022-08-14T00:49:18;19.50;1.00
10129;DHT22;5104;50.720;7.044;2022-08-14T00:51:45;19.40;1.00
10129;DHT22;5104;50.720;7.044;2022-08-14T00:54:13;19.40;1.00
10129;DHT22;5104;50.720;7.044;2022-08-14T00:56:41;19.30;1.00
10129;DHT22;5104;50.720;7.044;2022-08-14T00:59:08;19.40;1.00
10129;DHT22;5104;50.720;7.044;2022-08-14T01:01:36;19.40;1.00
10129;DHT22;5104;50.720;7.044;2022-08-14T01:04:04;19.40;1.00
10129;DHT22;5104;50.720;7.044;2022-08-14T01:06:31;19.30;1.00
10129;DHT22;5104;50.720;7.044;2022-08-14T01:08:59;19.30;1.00
10129;DHT22;5104;50.720;7.044;2022-08-14T01:11:28;19.30;1.00
10129;DHT22;5104;50.720;7.044;2022-08-14T01:13:55;19.20;1.00
10129;DHT22;5104;50.720;7.044;2022-08-14T01:16:26;19.10;1.00
10129;DHT22;5104;50.720;7.044;2022-08-14T01:18:55;19.10;1.00
10129;DHT22;5104;50.720;7.044;2022-08-14T01:21:40;19.00;56.20
10129;DHT22;5104;50.720;7.044;2022-08-14T01:24:10;19.00;99.90
10129;DHT22;5104;50.720;7.044;2022-08-14T01:26:40;19.00;99.90
10129;DHT22;5104;50.720;7.044;2022-08-14T01:29:07;19.00;99.90
10129;DHT22;5104;50.720;7.044;2022-08-14T01:31:35;19.00;99.90
10129;DHT22;5104;50.720;7.044;2022-08-14T01:34:04;19.00;99.90
10129;DHT22;5104;50.720;7.044;2022-08-14T01:36:31;19.00;88.20
10129;DHT22;5104;50.720;7.044;2022-08-14T01:39:06;19.00;98.30
10129;DHT22;5104;50.720;7.044;2022-08-14T01:41:34;19.00;99.80
10129;DHT22;5104;50.720;7.044;2022-08-14T01:44:04;19.00;84.30
10129;DHT22;5104;50.720;7.044;2022-08-14T01:46:34;18.90;91.90
10129;DHT22;5104;50.720;7.044;2022-08-14T01:49:02;18.90;99.90
10129;DHT22;5104;50.720;7.044;2022-08-14T01:51:31;18.90;99.90
10129;DHT22;5104;50.720;7.044;2022-08-14T01:54:00;18.80;99.90
10129;DHT22;5104;50.720;7.044;2022-08-14T01:56:31;18.80;99.90
10129;DHT22;5104;50.720;7.044;2022-08-14T01:59:02;18.70;99.90
10129;DHT22;5104;50.720;7.044;2022-08-14T02:01:29;18.70;99.90
10129;DHT22;5104;50.720;7.044;2022-08-14T02:03:56;18.70;99.90
10129;DHT22;5104;50.720;7.044;2022-08-14T02:06:23;18.60;99.90
10129;DHT22;5104;50.720;7.044;2022-08-14T02:08:52;18.60;99.90
10129;DHT22;5104;50.720;7.044;2022-08-14T02:11:19;18.60;99.90
10129;DHT22;5104;50.720;7.044;2022-08-14T02:13:54;18.60;99.90
10129;DHT22;5104;50.720;7.044;2022-08-14T02:16:24;18.60;99.90
10129;DHT22;5104;50.720;7.044;2022-08-14T02:18:53;18.60;1.00
10129;DHT22;5104;50.720;7.044;2022-08-14T02:21:20;18.60;1.00
10129;DHT22;5104;50.720;7.044;2022-08-14T02:23:50;18.60;1.00
10129;DHT22;5104;50.720;7.044;2022-08-14T02:26:19;18.60;1.00
10129;DHT22;5104;50.720;7.044;2022-08-14T02:28:47;18.70;1.00
10129;DHT22;5104;50.720;7.044;2022-08-14T02:31:17;18.70;1.00
10129;DHT22;5104;50.720;7.044;2022-08-14T02:33:44;18.60;1.00
10129;DHT22;5104;50.720;7.044;2022-08-14T02:36:13;18.60;1.00
10129;DHT22;5104;50.720;7.044;2022-08-14T02:38:40;18.60;1.00
10129;DHT22;5104;50.720;7.044;2022-08-14T02:41:10;18.60;1.00
10129;DHT22;5104;50.720;7.044;2022-08-14T02:43:38;18.60;1.00
10129;DHT22;5104;50.720;7.044;2022-08-14T02:46:06;18.60;1.00
10129;DHT22;5104;50.720;7.044;2022-08-14T02:48:37;18.60;1.00
10129;DHT22;5104;50.720;7.044;2022-08-14T02:51:08;18.50;1.00
10129;DHT22;5104;50.720;7.044;2022-08-14T02:53:36;18.40;1.00
10129;DHT22;5104;50.720;7.044;2022-08-14T02:56:06;18.40;1.00
10129;DHT22;5104;50.720;7.044;2022-08-14T02:58:37;18.40;1.00
10129;DHT22;5104;50.720;7.044;2022-08-14T03:01:05;18.30;1.00
10129;DHT22;5104;50.720;7.044;2022-08-14T03:03:33;18.30;1.00
10129;DHT22;5104;50.720;7.044;2022-08-14T03:06:03;18.20;1.00
10129;DHT22;5104;50.720;7.044;2022-08-14T03:08:31;18.20;1.00
10129;DHT22;5104;50.720;7.044;2022-08-14T03:10:59;18.20;1.00
10129;DHT22;5104;50.720;7.044;2022-08-14T03:13:32;18.20;1.00
10129;DHT22;5104;50.720;7.044;2022-08-14T03:16:00;18.20;1.00
10129;DHT22;5104;50.720;7.044;2022-08-14T03:18:27;18.20;2.70
10129;DHT22;5104;50.720;7.044;2022-08-14T03:20:54;18.30;1.00
10129;DHT22;5104;50.720;7.044;2022-08-14T03:23:23;18.20;23.70
10129;DHT22;5104;50.720;7.044;2022-08-14T03:25:49;18.20;67.00
10129;DHT22;5104;50.720;7.044;2022-08-14T03:28:16;18.10;99.90
10129;DHT22;5104;50.720;7.044;2022-08-14T03:30:43;18.10;99.90
10129;DHT22;5104;50.720;7.044;2022-08-14T03:33:11;18.00;99.90
10129;DHT22;5104;50.720;7.044;2022-08-14T03:35:39;18.00;99.90
10129;DHT22;5104;50.720;7.044;2022-08-14T03:38:08;18.00;99.90
10129;DHT22;5104;50.720;7.044;2022-08-14T03:40:37;17.90;99.90
10129;DHT22;5104;50.720;7.044;2022-08-14T03:43:05;17.90;99.90
10129;DHT22;5104;50.720;7.044;2022-08-14T03:45:34;17.80;1.00
10129;DHT22;5104;50.720;7.044;2022-08-14T03:48:02;17.80;1.00
10129;DHT22;5104;50.720;7.044;2022-08-14T03:50:30;17.70;1.00
10129;DHT22;5104;50.720;7.044;2022-08-14T03:52:59;17.70;1.00
10129;DHT22;5104;50.720;7.044;2022-08-14T03:55:26;17.70;1.00
10129;DHT22;5104;50.720;7.044;2022-08-14T03:57:55;17.70;1.00
10129;DHT22;5104;50.720;7.044;2022-08-14T04:00:22;17.80;1.00
10129;DHT22;5104;50.720;7.044;2022-08-14T04:02:49;17.80;1.00
10129;DHT22;5104;50.720;7.044;2022-08-14T04:05:16;17.80;1.00
10129;DHT22;5104;50.720;7.044;2022-08-14T04:07:44;17.90;1.00
10129;DHT22;5104;50.720;7.044;2022-08-14T04:10:11;17.80;1.00
10129;DHT22;5104;50.720;7.044;2022-08-14T04:12:38;17.70;1.00
10129;DHT22;5104;50.720;7.044;2022-08-14T04:15:08;17.70;1.00
10129;DHT22;5104;50.720;7.044;2022-08-14T04:17:35;17.70;1.00
10129;DHT22;5104;50.720;7.044;2022-08-14T04:20:04;17.60;1.00
10129;DHT22;5104;50.720;7.044;2022-08-14T04:22:32;17.60;53.80
10129;DHT22;5104;50.720;7.044;2022-08-14T04:24:59;17.60;99.90
10129;DHT22;5104;50.720;7.044;2022-08-14T04:27:26;17.60;99.90
10129;DHT22;5104;50.720;7.044;2022-08-14T04:29:54;17.70;99.90
10129;DHT22;5104;50.720;7.044;2022-08-14T04:32:23;17.70;99.90
10129;DHT22;5104;50.720;7.044;2022-08-14T04:34:52;17.70;53.00
10129;DHT22;5104;50.720;7.044;2022-08-14T04:37:21;17.70;99.90
10129;DHT22;5104;50.720;7.044;2022-08-14T04:40:06;17.70;99.90
10129;DHT22;5104;50.720;7.044;2022-08-14T04:42:51;17.70;99.90
10129;DHT22;5104;50.720;7.044;2022-08-14T04:45:35;17.70;99.90
10129;DHT22;5104;50.720;7.044;2022-08-14T04:48:08;17.70;99.90
10129;DHT22;5104;50.720;7.044;2022-08-14T04:50:43;17.80;99.90
10129;DHT22;5104;50.720;7.044;2022-08-14T04:53:12;17.80;99.90
10129;DHT22;5104;50.720;7.044;2022-08-14T04:55:40;17.90;99.90
10129;DHT22;5104;50.720;7.044;2022-08-14T04:58:09;17.80;99.90
10129;DHT22;5104;50.720;7.044;2022-08-14T05:00:36;17.90;99.90
10129;DHT22;5104;50.720;7.044;2022-08-14T05:03:06;18.00;99.90
10129;DHT22;5104;50.720;7.044;2022-08-14T05:05:33;18.00;99.90
10129;DHT22;5104;50.720;7.044;2022-08-14T05:08:05;18.10;99.90
10129;DHT22;5104;50.720;7.044;2022-08-14T05:10:35;18.20;99.90
10129;DHT22;5104;50.720;7.044;2022-08-14T05:13:02;18.20;99.90
10129;DHT22;5104;50.720;7.044;2022-08-14T05:15:31;18.30;25.30
10129;DHT22;5104;50.720;7.044;2022-08-14T05:18:01;18.30;94.30
10129;DHT22;5104;50.720;7.044;2022-08-14T05:20:30;18.30;56.40
10129;DHT22;5104;50.720;7.044;2022-08-14T05:22:57;18.40;91.60
10129;DHT22;5104;50.720;7.044;2022-08-14T05:25:24;18.50;25.70
10129;DHT22;5104;50.720;7.044;2022-08-14T05:27:51;18.60;1.00
10129;DHT22;5104;50.720;7.044;2022-08-14T05:30:18;18.60;1.00
10129;DHT22;5104;50.720;7.044;2022-08-14T05:32:45;18.70;1.00
10129;DHT22;5104;50.720;7.044;2022-08-14T05:35:13;18.80;1.00
10129;DHT22;5104;50.720;7.044;2022-08-14T05:37:41;19.00;1.00
10129;DHT22;5104;50.720;7.044;2022-08-14T05:40:08;19.10;1.00
10129;DHT22;5104;50.720;7.044;2022-08-14T05:42:36;19.20;99.90
10129;DHT22;5104;50.720;7.044;2022-08-14T05:45:04;19.30;99.90
10129;DHT22;5104;50.720;7.044;2022-08-14T05:47:32;19.50;99.90
10129;DHT22;5104;50.720;7.044;2022-08-14T05:50:06;19.70;99.90
10129;DHT22;5104;50.720;7.044;2022-08-14T05:52:33;19.80;99.90
10129;DHT22;5104;50.720;7.044;2022-08-14T05:55:02;20.00;1.00
10129;DHT22;5104;50.720;7.044;2022-08-14T05:57:29;20.20;1.00
10129;DHT22;5104;50.720;7.044;2022-08-14T05:59:56;20.40;1.00
10129;DHT22;5104;50.720;7.044;2022-08-14T06:02:23;20.50;1.00
10129;DHT22;5104;50.720;7.044;2022-08-14T06:04:50;20.60;1.00
10129;DHT22;5104;50.720;7.044;2022-08-14T06:07:17;20.80;1.00
10129;DHT22;5104;50.720;7.044;2022-08-14T06:09:43;20.90;1.00
10129;DHT22;5104;50.720;7.044;2022-08-14T06:12:12;21.00;1.00
10129;DHT22;5104;50.720;7.044;2022-08-14T06:14:38;21.20;1.00
10129;DHT22;5104;50.720;7.044;2022-08-14T06:17:07;21.30;1.00
10129;DHT22;5104;50.720;7.044;2022-08-14T06:19:34;21.40;99.90
10129;DHT22;5104;50.720;7.044;2022-08-14T06:22:01;21.60;99.90
10129;DHT22;5104;50.720;7.044;2022-08-14T06:24:28;21.70;99.90
10129;DHT22;5104;50.720;7.044;2022-08-14T06:26:55;21.90;99.90
10129;DHT22;5104;50.720;7.044;2022-08-14T06:29:23;22.00;99.90
10129;DHT22;5104;50.720;7.044;2022-08-14T06:31:50;22.00;99.90
10129;DHT22;5104;50.720;7.044;2022-08-14T06:34:17;22.10;99.90
10129;DHT22;5104;50.720;7.044;2022-08-14T06:36:44;22.30;99.90
10129;DHT22;5104;50.720;7.044;2022-08-14T06:39:11;22.40;99.90
10129;DHT22;5104;50.720;7.044;2022-08-14T06:41:38;22.50;94.80
10129;DHT22;5104;50.720;7.044;2022-08-14T06:44:06;22.60;82.50
10129;DHT22;5104;50.720;7.044;2022-08-14T06:46:34;22.70;69.00
10129;DHT22;5104;50.720;7.044;2022-08-14T06:49:01;22.80;26.30
10129;DHT22;5104;50.720;7.044;2022-08-14T06:51:28;22.80;18.30
10129;DHT22;5104;50.720;7.044;2022-08-14T06:53:55;23.00;1.00
10129;DHT22;5104;50.720;7.044;2022-08-14T06:56:22;23.00;3.30
10129;DHT22;5104;50.720;7.044;2022-08-14T06:58:49;23.10;1.00
10129;DHT22;5104;50.720;7.044;2022-08-14T07:01:16;23.20;1.00
10129;DHT22;5104;50.720;7.044;2022-08-14T07:04:02;23.40;1.00
10129;DHT22;5104;50.720;7.044;2022-08-14T07:06:46;23.60;1.00
10129;DHT22;5104;50.720;7.044;2022-08-14T07:09:14;23.60;1.00
10129;DHT22;5104;50.720;7.044;2022-08-14T07:11:41;23.80;1.00
10129;DHT22;5104;50.720;7.044;2022-08-14T07:14:08;23.80;1.00
10129;DHT22;5104;50.720;7.044;2022-08-14T07:16:35;24.00;1.00
10129;DHT22;5104;50.720;7.044;2022-08-14T07:19:03;24.00;1.00
10129;DHT22;5104;50.720;7.044;2022-08-14T07:21:30;24.10;1.00
10129;DHT22;5104;50.720;7.044;2022-08-14T07:23:57;24.10;1.00
10129;DHT22;5104;50.720;7.044;2022-08-14T07:26:24;24.10;1.00
10129;DHT22;5104;50.720;7.044;2022-08-14T07:28:51;24.30;1.00
10129;DHT22;5104;50.720;7.044;2022-08-14T07:31:17;24.50;1.00
10129;DHT22;5104;50.720;7.044;2022-08-14T07:33:46;24.50;1.00
10129;DHT22;5104;50.720;7.044;2022-08-14T07:36:16;24.60;1.00
10129;DHT22;5104;50.720;7.044;2022-08-14T07:38:43;24.80;1.00
10129;DHT22;5104;50.720;7.044;2022-08-14T07:41:11;24.80;1.00
10129;DHT22;5104;50.720;7.044;2022-08-14T07:43:38;25.00;1.00
10129;DHT22;5104;50.720;7.044;2022-08-14T07:46:06;25.20;1.00
10129;DHT22;5104;50.720;7.044;2022-08-14T07:48:37;25.30;1.00
10129;DHT22;5104;50.720;7.044;2022-08-14T07:51:04;25.20;1.00
10129;DHT22;5104;50.720;7.044;2022-08-14T07:53:32;25.40;1.00
10129;DHT22;5104;50.720;7.044;2022-08-14T07:55:59;25.60;1.00
10129;DHT22;5104;50.720;7.044;2022-08-14T07:58:27;25.40;1.00
10129;DHT22;5104;50.720;7.044;2022-08-14T08:00:54;25.50;1.00
10129;DHT22;5104;50.720;7.044;2022-08-14T08:03:22;25.50;1.00
10129;DHT22;5104;50.720;7.044;2022-08-14T08:05:50;25.60;1.00
10129;DHT22;5104;50.720;7.044;2022-08-14T08:08:17;25.80;1.00
10129;DHT22;5104;50.720;7.044;2022-08-14T08:10:47;26.00;1.00
10129;DHT22;5104;50.720;7.044;2022-08-14T08:13:16;26.10;1.00
10129;DHT22;5104;50.720;7.044;2022-08-14T08:15:45;26.10;99.90
10129;DHT22;5104;50.720;7.044;2022-08-14T08:18:14;26.30;99.90
10129;DHT22;5104;50.720;7.044;2022-08-14T08:20:43;26.40;99.90
10129;DHT22;5104;50.720;7.044;2022-08-14T08:23:11;26.30;99.90
10129;DHT22;5104;50.720;7.044;2022-08-14T08:25:39;26.10;99.90
10129;DHT22;5104;50.720;7.044;2022-08-14T08:28:10;25.90;99.90
10129;DHT22;5104;50.720;7.044;2022-08-14T08:30:39;26.10;99.90
10129;DHT22;5104;50.720;7.044;2022-08-14T08:33:07;26.50;99.90
10129;DHT22;5104;50.720;7.044;2022-08-14T08:35:36;26.70;99.90
10129;DHT22;5104;50.720;7.044;2022-08-14T08:38:05;26.60;99.90
10129;DHT22;5104;50.720;7.044;2022-08-14T08:40:35;26.70;99.90
10129;DHT22;5104;50.720;7.044;2022-08-14T08:43:03;26.60;99.90
10129;DHT22;5104;50.720;7.044;2022-08-14T08:45:34;26.80;99.90
10129;DHT22;5104;50.720;7.044;2022-08-14T08:48:02;26.90;99.90
10129;DHT22;5104;50.720;7.044;2022-08-14T08:50:32;27.10;99.90
10129;DHT22;5104;50.720;7.044;2022-08-14T08:53:01;26.90;99.90
10129;DHT22;5104;50.720;7.044;2022-08-14T08:55:32;27.10;99.90
10129;DHT22;5104;50.720;7.044;2022-08-14T08:58:01;27.30;99.90
10129;DHT22;5104;50.720;7.044;2022-08-14T09:00:30;27.30;99.90
10129;DHT22;5104;50.720;7.044;2022-08-14T09:03:02;27.10;99.90
10129;DHT22;5104;50.720;7.044;2022-08-14T09:05:32;27.40;99.90
10129;DHT22;5104;50.720;7.044;2022-08-14T09:08:09;27.50;99.90
10129;DHT22;5104;50.720;7.044;2022-08-14T09:10:36;27.50;99.90
10129;DHT22;5104;50.720;7.044;2022-08-14T09:13:04;27.60;99.90
10129;DHT22;5104;50.720;7.044;2022-08-14T09:15:31;27.80;99.90
10129;DHT22;5104;50.720;7.044;2022-08-14T09:18:00;27.90;99.90
10129;DHT22;5104;50.720;7.044;2022-08-14T09:20:26;27.70;99.90
10129;DHT22;5104;50.720;7.044;2022-08-14T09:22:53;27.70;99.90
10129;DHT22;5104;50.720;7.044;2022-08-14T09:25:21;27.80;99.90
10129;DHT22;5104;50.720;7.044;2022-08-14T09:27:47;27.60;99.90
10129;DHT22;5104;50.720;7.044;2022-08-14T09:30:15;27.80;99.90
10129;DHT22;5104;50.720;7.044;2022-08-14T09:32:55;28.10;99.90
10129;DHT22;5104;50.720;7.044;2022-08-14T09:35:31;28.10;99.90
10129;DHT22;5104;50.720;7.044;2022-08-14T09:38:07;28.30;93.00
10129;DHT22;5104;50.720;7.044;2022-08-14T09:40:41;28.40;85.00
10129;DHT22;5104;50.720;7.044;2022-08-14T09:43:21;28.40;73.50
10129;DHT22;5104;50.720;7.044;2022-08-14T09:45:52;28.60;37.60
10129;DHT22;5104;50.720;7.044;2022-08-14T09:48:23;28.70;40.40
10129;DHT22;5104;50.720;7.044;2022-08-14T09:50:53;28.80;27.70
10129;DHT22;5104;50.720;7.044;2022-08-14T09:53:35;28.80;24.10
10129;DHT22;5104;50.720;7.044;2022-08-14T09:56:03;29.00;2.70
10129;DHT22;5104;50.720;7.044;2022-08-14T09:58:38;28.90;1.00
10129;DHT22;5104;50.720;7.044;2022-08-14T10:01:10;29.10;1.00
10129;DHT22;5104;50.720;7.044;2022-08-14T10:03:45;29.40;1.00
10129;DHT22;5104;50.720;7.044;2022-08-14T10:06:16;29.40;1.00
10129;DHT22;5104;50.720;7.044;2022-08-14T10:08:45;29.20;1.00
10129;DHT22;5104;50.720;7.044;2022-08-14T10:11:14;29.10;1.00
10129;DHT22;5104;50.720;7.044;2022-08-14T10:13:42;29.20;1.00
10129;DHT22;5104;50.720;7.044;2022-08-14T10:16:09;29.20;1.00
10129;DHT22;5104;50.720;7.044;2022-08-14T10:18:36;29.40;1.00
10129;DHT22;5104;50.720;7.044;2022-08-14T10:21:06;29.40;1.00
10129;DHT22;5104;50.720;7.044;2022-08-14T10:23:42;29.60;1.00
10129;DHT22;5104;50.720;7.044;2022-08-14T10:26:10;29.80;1.00
10129;DHT22;5104;50.720;7.044;2022-08-14T10:28:44;29.70;1.00
10129;DHT22;5104;50.720;7.044;2022-08-14T10:31:17;29.80;1.00
10129;DHT22;5104;50.720;7.044;2022-08-14T10:33:44;30.10;1.00
10129;DHT22;5104;50.720;7.044;2022-08-14T10:36:26;30.10;1.00
10129;DHT22;5104;50.720;7.044;2022-08-14T10:38:58;30.10;1.00
10129;DHT22;5104;50.720;7.044;2022-08-14T10:41:34;30.20;1.00
10129;DHT22;5104;50.720;7.044;2022-08-14T10:44:08;30.20;1.00
10129;DHT22;5104;50.720;7.044;2022-08-14T10:46:43;30.20;1.00
10129;DHT22;5104;50.720;7.044;2022-08-14T10:49:20;30.00;1.00
10129;DHT22;5104;50.720;7.044;2022-08-14T10:51:59;30.00;1.00
10129;DHT22;5104;50.720;7.044;2022-08-14T10:54:37;30.00;1.00
10129;DHT22;5104;50.720;7.044;2022-08-14T10:57:15;30.40;1.00
10129;DHT22;5104;50.720;7.044;2022-08-14T10:59:49;30.10;1.00
10129;DHT22;5104;50.720;7.044;2022-08-14T11:02:18;30.40;1.00
10129;DHT22;5104;50.720;7.044;2022-08-14T11:04:59;30.70;1.00
10129;DHT22;5104;50.720;7.044;2022-08-14T11:07:27;30.60;1.00
10129;DHT22;5104;50.720;7.044;2022-08-14T11:09:57;30.80;1.00
10129;DHT22;5104;50.720;7.044;2022-08-14T11:12:24;31.10;1.00
10129;DHT22;5104;50.720;7.044;2022-08-14T11:14:53;31.40;1.00
10129;DHT22;5104;50.720;7.044;2022-08-14T11:17:21;31.20;1.00
10129;DHT22;5104;50.720;7.044;2022-08-14T11:19:53;31.20;1.00
10129;DHT22;5104;50.720;7.044;2022-08-14T11:22:21;31.30;1.00
10129;DHT22;5104;50.720;7.044;2022-08-14T11:24:52;31.70;1.00
10129;DHT22;5104;50.720;7.044;2022-08-14T11:27:23;31.70;1.00
10129;DHT22;5104;50.720;7.044;2022-08-14T11:29:52;31.50;1.00
10129;DHT22;5104;50.720;7.044;2022-08-14T11:32:21;31.20;1.00
10129;DHT22;5104;50.720;7.044;2022-08-14T11:34:49;31.30;1.00
10129;DHT22;5104;50.720;7.044;2022-08-14T11:37:18;31.50;1.00
10129;DHT22;5104;50.720;7.044;2022-08-14T11:39:45;31.40;1.00
10129;DHT22;5104;50.720;7.044;2022-08-14T11:42:19;31.30;1.00
10129;DHT22;5104;50.720;7.044;2022-08-14T11:44:50;31.30;1.00
10129;DHT22;5104;50.720;7.044;2022-08-14T11:47:17;31.20;1.00
10129;DHT22;5104;50.720;7.044;2022-08-14T11:49:45;31.10;1.00
10129;DHT22;5104;50.720;7.044;2022-08-14T11:52:13;31.00;1.00
10129;DHT22;5104;50.720;7.044;2022-08-14T11:54:40;30.90;1.00
10129;DHT22;5104;50.720;7.044;2022-08-14T11:57:13;31.00;1.00
10129;DHT22;5104;50.720;7.044;2022-08-14T11:59:40;30.80;1.00
10129;DHT22;5104;50.720;7.044;2022-08-14T12:02:10;31.00;1.00
10129;DHT22;5104;50.720;7.044;2022-08-14T12:04:48;31.30;1.00
10129;DHT22;5104;50.720;7.044;2022-08-14T12:07:14;31.50;1.00
10129;DHT22;5104;50.720;7.044;2022-08-14T12:09:43;31.70;1.00
10129;DHT22;5104;50.720;7.044;2022-08-14T12:12:14;32.00;1.00
10129;DHT22;5104;50.720;7.044;2022-08-14T12:14:52;32.00;1.00
10129;DHT22;5104;50.720;7.044;2022-08-14T12:17:23;31.90;1.00
10129;DHT22;5104;50.720;7.044;2022-08-14T12:19:52;31.70;1.00
10129;DHT22;5104;50.720;7.044;2022-08-14T12:22:31;31.60;1.00
10129;DHT22;5104;50.720;7.044;2022-08-14T12:25:00;31.60;1.00
10129;DHT22;5104;50.720;7.044;2022-08-14T12:27:40;31.40;1.00
10129;DHT22;5104;50.720;7.044;2022-08-14T12:30:09;31.20;1.00
10129;DHT22;5104;50.720;7.044;2022-08-14T12:32:40;31.20;1.00
10129;DHT22;5104;50.720;7.044;2022-08-14T12:35:08;31.20;1.00
10129;DHT22;5104;50.720;7.044;2022-08-14T12:37:36;31.20;1.00
10129;DHT22;5104;50.720;7.044;2022-08-14T12:40:10;31.20;1.00
10129;DHT22;5104;50.720;7.044;2022-08-14T12:42:38;31.50;1.00
10129;DHT22;5104;50.720;7.044;2022-08-14T12:45:06;31.50;1.00
10129;DHT22;5104;50.720;7.044;2022-08-14T12:47:35;31.20;1.00
10129;DHT22;5104;50.720;7.044;2022-08-14T12:50:05;30.90;1.00
10129;DHT22;5104;50.720;7.044;2022-08-14T12:52:34;31.00;1.00
10129;DHT22;5104;50.720;7.044;2022-08-14T12:55:03;30.80;1.00
10129;DHT22;5104;50.720;7.044;2022-08-14T12:57:36;30.90;1.00
10129;DHT22;5104;50.720;7.044;2022-08-14T13:00:09;31.00;1.00
10129;DHT22;5104;50.720;7.044;2022-08-14T13:02:39;31.20;1.00
10129;DHT22;5104;50.720;7.044;2022-08-14T13:05:09;31.30;1.00
10129;DHT22;5104;50.720;7.044;2022-08-14T13:07:37;31.10;1.00
10129;DHT22;5104;50.720;7.044;2022-08-14T13:10:07;31.20;1.00
10129;DHT22;5104;50.720;7.044;2022-08-14T13:12:37;31.40;1.00
10129;DHT22;5104;50.720;7.044;2022-08-14T13:15:05;31.80;1.00
10129;DHT22;5104;50.720;7.044;2022-08-14T13:17:38;31.90;1.00
10129;DHT22;5104;50.720;7.044;2022-08-14T13:20:08;31.80;1.00
10129;DHT22;5104;50.720;7.044;2022-08-14T13:22:37;31.80;1.00
10129;DHT22;5104;50.720;7.044;2022-08-14T13:25:07;31.60;1.00
10129;DHT22;5104;50.720;7.044;2022-08-14T13:27:34;31.30;1.00
10129;DHT22;5104;50.720;7.044;2022-08-14T13:30:05;31.40;1.00
10129;DHT22;5104;50.720;7.044;2022-08-14T13:32:32;31.60;1.00
10129;DHT22;5104;50.720;7.044;2022-08-14T13:35:00;32.00;1.00
10129;DHT22;5104;50.720;7.044;2022-08-14T13:37:29;32.40;1.00
10129;DHT22;5104;50.720;7.044;2022-08-14T13:39:56;32.50;1.00
10129;DHT22;5104;50.720;7.044;2022-08-14T13:42:24;32.70;1.00
10129;DHT22;5104;50.720;7.044;2022-08-14T13:44:54;32.90;1.00
10129;DHT22;5104;50.720;7.044;2022-08-14T13:47:22;32.90;1.00
10129;DHT22;5104;50.720;7.044;2022-08-14T13:49:51;32.50;1.00
10129;DHT22;5104;50.720;7.044;2022-08-14T13:52:19;32.70;1.00
10129;DHT22;5104;50.720;7.044;2022-08-14T13:54:49;33.00;1.00
10129;DHT22;5104;50.720;7.044;2022-08-14T13:57:18;33.00;1.00
10129;DHT22;5104;50.720;7.044;2022-08-14T13:59:48;32.70;1.00
10129;DHT22;5104;50.720;7.044;2022-08-14T14:02:17;32.80;1.00
10129;DHT22;5104;50.720;7.044;2022-08-14T14:04:47;32.90;1.00
10129;DHT22;5104;50.720;7.044;2022-08-14T14:07:17;33.00;1.00
10129;DHT22;5104;50.720;7.044;2022-08-14T14:09:48;33.30;1.00
10129;DHT22;5104;50.720;7.044;2022-08-14T14:12:15;33.70;1.00
10129;DHT22;5104;50.720;7.044;2022-08-14T14:14:42;33.80;1.00
10129;DHT22;5104;50.720;7.044;2022-08-14T14:17:12;33.90;1.00
10129;DHT22;5104;50.720;7.044;2022-08-14T14:19:40;34.20;1.00
10129;DHT22;5104;50.720;7.044;2022-08-14T14:22:12;34.10;1.00
10129;DHT22;5104;50.720;7.044;2022-08-14T14:24:40;34.40;1.00
10129;DHT22;5104;50.720;7.044;2022-08-14T14:27:08;34.20;1.00
10129;DHT22;5104;50.720;7.044;2022-08-14T14:29:36;34.60;1.00
10129;DHT22;5104;50.720;7.044;2022-08-14T14:32:05;34.80;1.00
10129;DHT22;5104;50.720;7.044;2022-08-14T14:34:34;34.40;1.00
10129;DHT22;5104;50.720;7.044;2022-08-14T14:37:02;34.60;1.00
10129;DHT22;5104;50.720;7.044;2022-08-14T14:39:31;35.10;1.00
10129;DHT22;5104;50.720;7.044;2022-08-14T14:41:58;34.30;1.00
10129;DHT22;5104;50.720;7.044;2022-08-14T14:44:33;34.30;1.00
10129;DHT22;5104;50.720;7.044;2022-08-14T14:47:07;33.80;1.00
10129;DHT22;5104;50.720;7.044;2022-08-14T14:49:35;34.50;1.00
10129;DHT22;5104;50.720;7.044;2022-08-14T14:52:06;34.60;1.00
10129;DHT22;5104;50.720;7.044;2022-08-14T14:54:34;35.00;1.00
10129;DHT22;5104;50.720;7.044;2022-08-14T14:57:02;35.10;1.00
10129;DHT22;5104;50.720;7.044;2022-08-14T14:59:31;35.80;1.00
10129;DHT22;5104;50.720;7.044;2022-08-14T15:02:01;35.90;1.00
10129;DHT22;5104;50.720;7.044;2022-08-14T15:04:31;36.40;1.00
10129;DHT22;5104;50.720;7.044;2022-08-14T15:06:58;36.70;1.00
10129;DHT22;5104;50.720;7.044;2022-08-14T15:09:25;36.40;1.00
10129;DHT22;5104;50.720;7.044;2022-08-14T15:11:52;36.00;1.00
10129;DHT22;5104;50.720;7.044;2022-08-14T15:14:19;36.20;1.00
10129;DHT22;5104;50.720;7.044;2022-08-14T15:16:47;36.40;1.00
10129;DHT22;5104;50.720;7.044;2022-08-14T15:19:14;36.50;1.00
10129;DHT22;5104;50.720;7.044;2022-08-14T15:21:42;36.80;1.00
10129;DHT22;5104;50.720;7.044;2022-08-14T15:24:08;35.80;1.00
10129;DHT22;5104;50.720;7.044;2022-08-14T15:26:35;35.10;1.00
10129;DHT22;5104;50.720;7.044;2022-08-14T15:29:04;34.30;1.00
10129;DHT22;5104;50.720;7.044;2022-08-14T15:31:32;34.20;1.00
10129;DHT22;5104;50.720;7.044;2022-08-14T15:34:00;34.00;1.00
10129;DHT22;5104;50.720;7.044;2022-08-14T15:36:36;33.80;1.00
10129;DHT22;5104;50.720;7.044;2022-08-14T15:39:04;34.20;1.00
10129;DHT22;5104;50.720;7.044;2022-08-14T15:41:31;34.30;1.00
10129;DHT22;5104;50.720;7.044;2022-08-14T15:43:59;34.60;1.00
10129;DHT22;5104;50.720;7.044;2022-08-14T15:46:26;34.50;1.00
10129;DHT22;5104;50.720;7.044;2022-08-14T15:48:54;34.10;1.00
10129;DHT22;5104;50.720;7.044;2022-08-14T15:51:22;34.00;1.00
10129;DHT22;5104;50.720;7.044;2022-08-14T15:53:49;33.70;1.00
10129;DHT22;5104;50.720;7.044;2022-08-14T15:56:16;33.50;1.00
10129;DHT22;5104;50.720;7.044;2022-08-14T15:58:43;33.50;1.00
10129;DHT22;5104;50.720;7.044;2022-08-14T16:01:11;33.40;1.00
10129;DHT22;5104;50.720;7.044;2022-08-14T16:03:46;33.40;1.00
10129;DHT22;5104;50.720;7.044;2022-08-14T16:06:15;33.70;1.00
10129;DHT22;5104;50.720;7.044;2022-08-14T16:08:44;33.40;1.00